Airfield :
LOGIN :

Register | Disclaimer

   EN    FR    IT 

 










Legend :    VFR   Marginal VFR   IFR   Intensive IFR   Very Intensive IFR
Visi :
Ceiling :
>= 8 km
>= 3000ft
5 to 8 km
1000 to 3000 ft
1500m to 5 km
500 to 1000 ft
800 to 1500m
200 to 500 ft
< 800m
< 200 ft
Symbols :   Thunderstorms  Fog  Heavy snow  Heavy precipitations  Wind > 20 kt
SIGMETs :     Misc.  Thunderstorms  Icing  Turbulence  Mountain Waves  Volcanic Ashes






- Airport Elevation : 56 ft
- IATA code : ILY


EGPI - Islay

CURRENT METAR :
  • 230320Z AUTO 17012KT 9999 OVC027/// 10/07 Q1016

EXPIRED METARs :
  • 230250Z AUTO 18011KT 9999 OVC024/// 10/07 Q1016
  • 230220Z AUTO 17012KT 140V200 9999 BKN030/// 10/08 Q1017 RERA
  • 230150Z AUTO 17012KT 130V190 9999 BKN027/// SCT038/// 10/08 Q1017 RERA
  • 230120Z AUTO 17011KT 130V200 9999 BKN027/// BKN035/// 10/07 Q1017
  • 230050Z AUTO 17011KT 140V200 9999 OVC030/// 10/08 Q1018

TAF TAF EGPI
Valid from the 23 at 03:00 until the 23 at 12:00 UTC


230154Z 2303/2312 19014KT 9999 FEW019
PROB40
TEMPO 2304/2306 19018G28KT
BECMG 2306/2309 18022G35KT
TEMPO 2310/2312 8000 -RA BKN014
PROB30
TEMPO 2310/2312 4000 RA BKN009



MET'MAP, your aeronautical weather chart ! - Copyright ORBIFLY December 2007 - Disclaimer

ORBIFLY MET'MAP TEAM :

Programming & Development : Alexandra Zaïnal
Concept & original design : Baudouin d'Aumeries
Assistance for programming : Marc-Olivier Méhu
Technical & hardware support : Manuel Goepfert

Contact : metmap@orbifly.com




SOURCES & CREDITS :

   NOAA